sensor_id;sensor_type;location;lat;lon;timestamp;pressure;altitude;pressure_sealevel;temperature;humidity
22000;BME280;11164;48.818;2.322;2023-04-22T00:01:58;99674.34;;;14.31;26.67
22000;BME280;11164;48.818;2.322;2023-04-22T00:04:23;99678.47;;;14.33;26.78
22000;BME280;11164;48.818;2.322;2023-04-22T00:06:49;99676.00;;;14.32;26.78
22000;BME280;11164;48.818;2.322;2023-04-22T00:09:14;99680.09;;;14.34;26.56
22000;BME280;11164;48.818;2.322;2023-04-22T00:11:40;99675.91;;;14.27;26.89
22000;BME280;11164;48.818;2.322;2023-04-22T00:14:05;99691.84;;;14.23;27.01
22000;BME280;11164;48.818;2.322;2023-04-22T00:16:31;99687.63;;;14.15;27.06
22000;BME280;11164;48.818;2.322;2023-04-22T00:18:56;99692.38;;;14.08;27.27
22000;BME280;11164;48.818;2.322;2023-04-22T00:21:21;99680.41;;;14.04;27.28
22000;BME280;11164;48.818;2.322;2023-04-22T00:23:47;99689.91;;;14.06;27.17
22000;BME280;11164;48.818;2.322;2023-04-22T00:26:12;99684.41;;;14.01;27.35
22000;BME280;11164;48.818;2.322;2023-04-22T00:28:37;99687.34;;;14.00;27.35
22000;BME280;11164;48.818;2.322;2023-04-22T00:31:03;99687.09;;;14.01;27.27
22000;BME280;11164;48.818;2.322;2023-04-22T00:33:30;99690.91;;;14.17;27.18
22000;BME280;11164;48.818;2.322;2023-04-22T00:35:55;99677.84;;;14.31;26.88
22000;BME280;11164;48.818;2.322;2023-04-22T00:38:21;99672.34;;;14.43;26.72
22000;BME280;11164;48.818;2.322;2023-04-22T00:40:46;99676.81;;;14.49;26.56
22000;BME280;11164;48.818;2.322;2023-04-22T00:43:12;99672.84;;;14.40;26.69
22000;BME280;11164;48.818;2.322;2023-04-22T00:45:38;99680.09;;;14.34;26.87
22000;BME280;11164;48.818;2.322;2023-04-22T00:48:04;99671.09;;;14.00;27.26
22000;BME280;11164;48.818;2.322;2023-04-22T00:50:29;99680.78;;;13.96;27.48
22000;BME280;11164;48.818;2.322;2023-04-22T00:52:55;99684.91;;;14.15;27.20
22000;BME280;11164;48.818;2.322;2023-04-22T00:55:20;99674.06;;;14.15;27.16
22000;BME280;11164;48.818;2.322;2023-04-22T00:57:48;99672.22;;;14.16;27.17
22000;BME280;11164;48.818;2.322;2023-04-22T01:00:15;99673.69;;;14.23;27.11
22000;BME280;11164;48.818;2.322;2023-04-22T01:02:42;99658.28;;;14.12;27.30
22000;BME280;11164;48.818;2.322;2023-04-22T01:05:07;99643.44;;;14.15;27.29
22000;BME280;11164;48.818;2.322;2023-04-22T01:07:34;99639.81;;;13.92;27.46
22000;BME280;11164;48.818;2.322;2023-04-22T01:10:00;99640.88;;;14.08;27.31
22000;BME280;11164;48.818;2.322;2023-04-22T01:12:25;99644.91;;;14.05;27.49
22000;BME280;11164;48.818;2.322;2023-04-22T01:14:51;99644.09;;;14.22;27.10
22000;BME280;11164;48.818;2.322;2023-04-22T01:17:16;99634.91;;;14.23;27.18
22000;BME280;11164;48.818;2.322;2023-04-22T01:19:43;99631.28;;;14.00;27.33
22000;BME280;11164;48.818;2.322;2023-04-22T01:22:12;99625.34;;;14.03;27.49
22000;BME280;11164;48.818;2.322;2023-04-22T01:24:37;99622.00;;;14.13;27.23
22000;BME280;11164;48.818;2.322;2023-04-22T01:27:03;99622.63;;;13.86;27.68
22000;BME280;11164;48.818;2.322;2023-04-22T01:29:29;99614.28;;;13.88;27.76
22000;BME280;11164;48.818;2.322;2023-04-22T01:31:54;99611.63;;;13.93;27.64
22000;BME280;11164;48.818;2.322;2023-04-22T01:34:21;99622.72;;;13.92;27.49
22000;BME280;11164;48.818;2.322;2023-04-22T01:36:47;99621.72;;;13.98;27.63
22000;BME280;11164;48.818;2.322;2023-04-22T01:39:12;99612.22;;;14.12;27.43
22000;BME280;11164;48.818;2.322;2023-04-22T01:41:38;99608.44;;;14.13;27.55
22000;BME280;11164;48.818;2.322;2023-04-22T01:44:03;99611.22;;;14.18;27.50
22000;BME280;11164;48.818;2.322;2023-04-22T01:46:29;99613.47;;;14.21;27.52
22000;BME280;11164;48.818;2.322;2023-04-22T01:48:54;99605.09;;;14.23;27.48
22000;BME280;11164;48.818;2.322;2023-04-22T01:51:19;99601.03;;;14.25;27.42
22000;BME280;11164;48.818;2.322;2023-04-22T01:53:49;99596.03;;;14.17;27.58
22000;BME280;11164;48.818;2.322;2023-04-22T01:56:14;99585.91;;;14.30;27.47
22000;BME280;11164;48.818;2.322;2023-04-22T01:58:40;99578.38;;;14.15;27.71
22000;BME280;11164;48.818;2.322;2023-04-22T02:01:07;99583.97;;;14.08;27.91
22000;BME280;11164;48.818;2.322;2023-04-22T02:03:32;99573.69;;;14.10;27.79
22000;BME280;11164;48.818;2.322;2023-04-22T02:05:58;99563.56;;;14.22;27.71
22000;BME280;11164;48.818;2.322;2023-04-22T02:08:23;99560.88;;;14.22;27.87
22000;BME280;11164;48.818;2.322;2023-04-22T02:10:48;99556.63;;;14.10;27.96
22000;BME280;11164;48.818;2.322;2023-04-22T02:13:14;99554.88;;;14.03;27.83
22000;BME280;11164;48.818;2.322;2023-04-22T02:15:39;99576.00;;;14.18;27.90
22000;BME280;11164;48.818;2.322;2023-04-22T02:18:06;99562.69;;;14.00;28.08
22000;BME280;11164;48.818;2.322;2023-04-22T02:20:32;99556.03;;;13.91;28.21
22000;BME280;11164;48.818;2.322;2023-04-22T02:22:58;99568.53;;;13.92;28.39
22000;BME280;11164;48.818;2.322;2023-04-22T02:25:23;99569.25;;;13.87;28.27
22000;BME280;11164;48.818;2.322;2023-04-22T02:27:48;99576.47;;;13.98;27.92
22000;BME280;11164;48.818;2.322;2023-04-22T02:30:14;99578.88;;;14.12;28.07
22000;BME280;11164;48.818;2.322;2023-04-22T02:32:40;99577.13;;;14.22;27.92
22000;BME280;11164;48.818;2.322;2023-04-22T02:35:05;99573.78;;;14.15;28.38
22000;BME280;11164;48.818;2.322;2023-04-22T02:37:31;99572.97;;;14.15;28.30
22000;BME280;11164;48.818;2.322;2023-04-22T02:39:56;99569.19;;;14.16;28.48
22000;BME280;11164;48.818;2.322;2023-04-22T02:42:22;99570.97;;;14.10;28.48
22000;BME280;11164;48.818;2.322;2023-04-22T02:44:47;99575.59;;;14.10;28.84
22000;BME280;11164;48.818;2.322;2023-04-22T02:47:12;99560.81;;;14.00;28.80
22000;BME280;11164;48.818;2.322;2023-04-22T02:49:38;99557.50;;;13.98;29.09
22000;BME280;11164;48.818;2.322;2023-04-22T02:52:03;99567.81;;;13.84;29.40
22000;BME280;11164;48.818;2.322;2023-04-22T02:54:29;99567.13;;;13.89;29.46
22000;BME280;11164;48.818;2.322;2023-04-22T02:56:54;99568.78;;;13.90;29.46
22000;BME280;11164;48.818;2.322;2023-04-22T02:59:20;99558.88;;;13.84;29.55
22000;BME280;11164;48.818;2.322;2023-04-22T03:01:45;99554.91;;;13.86;29.69
22000;BME280;11164;48.818;2.322;2023-04-22T03:04:10;99542.06;;;13.82;29.97
22000;BME280;11164;48.818;2.322;2023-04-22T03:06:36;99545.00;;;13.80;30.01
22000;BME280;11164;48.818;2.322;2023-04-22T03:09:01;99528.25;;;13.83;29.88
22000;BME280;11164;48.818;2.322;2023-04-22T03:11:27;99533.56;;;13.90;29.91
22000;BME280;11164;48.818;2.322;2023-04-22T03:13:52;99535.19;;;13.91;30.18
22000;BME280;11164;48.818;2.322;2023-04-22T03:16:17;99516.13;;;13.86;30.27
22000;BME280;11164;48.818;2.322;2023-04-22T03:18:43;99506.94;;;13.87;30.14
22000;BME280;11164;48.818;2.322;2023-04-22T03:21:08;99498.38;;;13.78;30.39
22000;BME280;11164;48.818;2.322;2023-04-22T03:23:34;99491.88;;;13.79;30.29
22000;BME280;11164;48.818;2.322;2023-04-22T03:25:59;99501.28;;;13.88;30.48
22000;BME280;11164;48.818;2.322;2023-04-22T03:28:25;99496.09;;;13.87;30.52
22000;BME280;11164;48.818;2.322;2023-04-22T03:30:50;99498.09;;;13.92;30.56
22000;BME280;11164;48.818;2.322;2023-04-22T03:33:17;99506.41;;;14.07;30.39
22000;BME280;11164;48.818;2.322;2023-04-22T03:35:42;99494.59;;;13.96;30.68
22000;BME280;11164;48.818;2.322;2023-04-22T03:38:07;99516.94;;;14.03;30.59
22000;BME280;11164;48.818;2.322;2023-04-22T03:40:33;99517.38;;;13.95;30.65
22000;BME280;11164;48.818;2.322;2023-04-22T03:42:58;99495.44;;;13.97;30.26
22000;BME280;11164;48.818;2.322;2023-04-22T03:45:23;99514.53;;;14.07;30.59
22000;BME280;11164;48.818;2.322;2023-04-22T03:47:48;99512.34;;;14.04;30.77
22000;BME280;11164;48.818;2.322;2023-04-22T03:50:14;99506.16;;;14.09;30.66
22000;BME280;11164;48.818;2.322;2023-04-22T03:52:40;99495.53;;;14.02;30.93
22000;BME280;11164;48.818;2.322;2023-04-22T03:55:06;99485.19;;;13.99;30.83
22000;BME280;11164;48.818;2.322;2023-04-22T03:57:31;99476.66;;;13.90;31.18
22000;BME280;11164;48.818;2.322;2023-04-22T03:59:57;99472.03;;;13.91;31.00
22000;BME280;11164;48.818;2.322;2023-04-22T04:02:22;99490.53;;;13.94;31.14
22000;BME280;11164;48.818;2.322;2023-04-22T04:04:47;99484.66;;;13.85;31.18
22000;BME280;11164;48.818;2.322;2023-04-22T04:07:12;99506.41;;;13.73;31.51
22000;BME280;11164;48.818;2.322;2023-04-22T04:09:38;99511.03;;;13.73;31.72
22000;BME280;11164;48.818;2.322;2023-04-22T04:12:03;99495.09;;;13.76;31.68
22000;BME280;11164;48.818;2.322;2023-04-22T04:14:29;99469.31;;;13.74;31.81
22000;BME280;11164;48.818;2.322;2023-04-22T04:16:54;99467.69;;;13.90;31.66
22000;BME280;11164;48.818;2.322;2023-04-22T04:19:19;99445.50;;;13.93;31.58
22000;BME280;11164;48.818;2.322;2023-04-22T04:21:45;99429.06;;;13.82;31.55
22000;BME280;11164;48.818;2.322;2023-04-22T04:24:11;99424.50;;;13.83;31.70
22000;BME280;11164;48.818;2.322;2023-04-22T04:26:36;99423.09;;;13.80;31.87
22000;BME280;11164;48.818;2.322;2023-04-22T04:29:02;99423.25;;;13.91;31.84
22000;BME280;11164;48.818;2.322;2023-04-22T04:31:27;99436.31;;;13.94;31.83
22000;BME280;11164;48.818;2.322;2023-04-22T04:33:53;99454.53;;;13.81;32.04
22000;BME280;11164;48.818;2.322;2023-04-22T04:36:22;99469.78;;;13.70;32.29
22000;BME280;11164;48.818;2.322;2023-04-22T04:38:51;99478.28;;;13.57;32.40
22000;BME280;11164;48.818;2.322;2023-04-22T04:41:17;99459.47;;;13.67;32.33
22000;BME280;11164;48.818;2.322;2023-04-22T04:43:45;99441.41;;;13.56;32.77
22000;BME280;11164;48.818;2.322;2023-04-22T04:46:10;99433.13;;;13.63;32.22
22000;BME280;11164;48.818;2.322;2023-04-22T04:48:36;99453.72;;;13.64;32.59
22000;BME280;11164;48.818;2.322;2023-04-22T04:51:01;99452.16;;;13.68;32.41
22000;BME280;11164;48.818;2.322;2023-04-22T04:53:28;99438.47;;;13.58;32.67
22000;BME280;11164;48.818;2.322;2023-04-22T04:55:53;99413.13;;;13.47;33.00
22000;BME280;11164;48.818;2.322;2023-04-22T04:58:18;99405.06;;;13.35;33.32
22000;BME280;11164;48.818;2.322;2023-04-22T05:00:44;99420.16;;;13.31;33.19
22000;BME280;11164;48.818;2.322;2023-04-22T05:03:09;99404.75;;;13.31;33.36
22000;BME280;11164;48.818;2.322;2023-04-22T05:05:34;99406.03;;;13.29;33.55
22000;BME280;11164;48.818;2.322;2023-04-22T05:08:00;99390.72;;;13.35;33.47
22000;BME280;11164;48.818;2.322;2023-04-22T05:10:25;99395.72;;;13.26;33.50
22000;BME280;11164;48.818;2.322;2023-04-22T05:12:50;99406.22;;;13.22;33.89
22000;BME280;11164;48.818;2.322;2023-04-22T05:15:16;99419.72;;;13.05;34.22
22000;BME280;11164;48.818;2.322;2023-04-22T05:17:42;99442.00;;;12.96;34.58
22000;BME280;11164;48.818;2.322;2023-04-22T05:20:08;99445.28;;;12.98;34.41
22000;BME280;11164;48.818;2.322;2023-04-22T05:22:34;99456.38;;;12.96;34.38
22000;BME280;11164;48.818;2.322;2023-04-22T05:25:02;99447.41;;;12.96;34.52
22000;BME280;11164;48.818;2.322;2023-04-22T05:27:27;99445.38;;;13.03;34.41
22000;BME280;11164;48.818;2.322;2023-04-22T05:29:53;99427.03;;;13.05;34.51
22000;BME280;11164;48.818;2.322;2023-04-22T05:32:18;99436.31;;;13.09;35.00
22000;BME280;11164;48.818;2.322;2023-04-22T05:34:43;99457.06;;;13.20;34.50
22000;BME280;11164;48.818;2.322;2023-04-22T05:37:09;99477.47;;;13.11;34.81
22000;BME280;11164;48.818;2.322;2023-04-22T05:39:35;99478.97;;;13.19;34.82
22000;BME280;11164;48.818;2.322;2023-04-22T05:42:00;99507.09;;;13.18;34.85
22000;BME280;11164;48.818;2.322;2023-04-22T05:44:26;99511.97;;;13.04;35.16
22000;BME280;11164;48.818;2.322;2023-04-22T05:46:51;99481.09;;;12.88;35.67
22000;BME280;11164;48.818;2.322;2023-04-22T05:49:16;99487.63;;;13.04;35.40
22000;BME280;11164;48.818;2.322;2023-04-22T05:51:41;99460.56;;;13.04;35.84
22000;BME280;11164;48.818;2.322;2023-04-22T05:54:07;99460.91;;;13.07;35.52
22000;BME280;11164;48.818;2.322;2023-04-22T05:56:32;99465.81;;;13.10;35.84
22000;BME280;11164;48.818;2.322;2023-04-22T05:58:58;99458.53;;;13.11;35.96
22000;BME280;11164;48.818;2.322;2023-04-22T06:01:23;99473.72;;;13.12;36.02
22000;BME280;11164;48.818;2.322;2023-04-22T06:03:49;99468.06;;;13.13;36.12
22000;BME280;11164;48.818;2.322;2023-04-22T06:06:14;99479.34;;;13.10;36.41
22000;BME280;11164;48.818;2.322;2023-04-22T06:08:40;99477.59;;;13.04;36.59
22000;BME280;11164;48.818;2.322;2023-04-22T06:11:05;99484.78;;;13.10;36.42
22000;BME280;11164;48.818;2.322;2023-04-22T06:13:30;99476.81;;;13.04;36.75
22000;BME280;11164;48.818;2.322;2023-04-22T06:15:56;99468.44;;;13.05;36.88
22000;BME280;11164;48.818;2.322;2023-04-22T06:18:21;99474.34;;;13.02;36.73
22000;BME280;11164;48.818;2.322;2023-04-22T06:20:46;99455.63;;;13.01;36.88
22000;BME280;11164;48.818;2.322;2023-04-22T06:23:12;99462.69;;;13.02;37.31
22000;BME280;11164;48.818;2.322;2023-04-22T06:25:37;99486.34;;;13.23;36.74
22000;BME280;11164;48.818;2.322;2023-04-22T06:28:03;99482.63;;;13.12;36.82
22000;BME280;11164;48.818;2.322;2023-04-22T06:30:28;99474.28;;;13.14;37.04
22000;BME280;11164;48.818;2.322;2023-04-22T06:32:53;99482.63;;;13.12;37.27
22000;BME280;11164;48.818;2.322;2023-04-22T06:35:21;99488.72;;;13.20;37.43
22000;BME280;11164;48.818;2.322;2023-04-22T06:37:47;99480.22;;;12.99;37.75
22000;BME280;11164;48.818;2.322;2023-04-22T06:40:13;99485.06;;;12.97;37.73
22000;BME280;11164;48.818;2.322;2023-04-22T06:42:39;99494.41;;;13.06;38.05
22000;BME280;11164;48.818;2.322;2023-04-22T06:45:05;99493.13;;;13.09;37.81
22000;BME280;11164;48.818;2.322;2023-04-22T06:47:38;99483.06;;;12.92;38.11
22000;BME280;11164;48.818;2.322;2023-04-22T06:50:05;99481.31;;;12.98;38.12
22000;BME280;11164;48.818;2.322;2023-04-22T06:52:31;99475.41;;;13.01;38.21
22000;BME280;11164;48.818;2.322;2023-04-22T06:54:56;99472.50;;;12.91;38.72
22000;BME280;11164;48.818;2.322;2023-04-22T06:57:22;99474.09;;;13.04;38.35
22000;BME280;11164;48.818;2.322;2023-04-22T06:59:47;99478.50;;;12.93;38.95
22000;BME280;11164;48.818;2.322;2023-04-22T07:02:12;99469.09;;;12.84;39.19
22000;BME280;11164;48.818;2.322;2023-04-22T07:04:38;99463.56;;;12.79;39.51
22000;BME280;11164;48.818;2.322;2023-04-22T07:07:03;99472.19;;;12.75;40.41
22000;BME280;11164;48.818;2.322;2023-04-22T07:09:29;99461.00;;;12.84;40.04
22000;BME280;11164;48.818;2.322;2023-04-22T07:11:55;99474.22;;;12.97;39.97
22000;BME280;11164;48.818;2.322;2023-04-22T07:14:24;99470.66;;;13.08;39.88
22000;BME280;11164;48.818;2.322;2023-04-22T07:16:50;99473.94;;;13.10;40.02
22000;BME280;11164;48.818;2.322;2023-04-22T07:19:15;99469.09;;;13.12;40.33
22000;BME280;11164;48.818;2.322;2023-04-22T07:21:41;99471.91;;;13.18;40.22
22000;BME280;11164;48.818;2.322;2023-04-22T07:24:06;99473.97;;;13.27;40.12
22000;BME280;11164;48.818;2.322;2023-04-22T07:26:35;99474.88;;;13.33;40.34
22000;BME280;11164;48.818;2.322;2023-04-22T07:29:02;99475.47;;;13.35;40.42
22000;BME280;11164;48.818;2.322;2023-04-22T07:31:27;99479.22;;;13.34;40.17
22000;BME280;11164;48.818;2.322;2023-04-22T07:33:53;99468.66;;;13.49;40.25
22000;BME280;11164;48.818;2.322;2023-04-22T07:36:18;99480.38;;;13.72;40.12
22000;BME280;11164;48.818;2.322;2023-04-22T07:38:43;99477.69;;;13.72;40.64
22000;BME280;11164;48.818;2.322;2023-04-22T07:41:09;99478.09;;;13.81;40.60
22000;BME280;11164;48.818;2.322;2023-04-22T07:43:34;99476.53;;;13.85;40.68
22000;BME280;11164;48.818;2.322;2023-04-22T07:45:59;99469.22;;;13.85;40.50
22000;BME280;11164;48.818;2.322;2023-04-22T07:48:25;99460.78;;;13.65;41.52
22000;BME280;11164;48.818;2.322;2023-04-22T07:50:50;99469.66;;;13.60;41.28
22000;BME280;11164;48.818;2.322;2023-04-22T07:53:15;99467.69;;;13.73;41.15
22000;BME280;11164;48.818;2.322;2023-04-22T07:55:41;99469.16;;;13.80;41.40
22000;BME280;11164;48.818;2.322;2023-04-22T07:58:07;99475.00;;;13.89;41.18
22000;BME280;11164;48.818;2.322;2023-04-22T08:00:33;99460.47;;;13.95;41.11
22000;BME280;11164;48.818;2.322;2023-04-22T08:02:59;99466.06;;;13.88;41.63
22000;BME280;11164;48.818;2.322;2023-04-22T08:05:24;99471.56;;;13.94;41.57
22000;BME280;11164;48.818;2.322;2023-04-22T08:07:50;99468.00;;;13.93;41.76
22000;BME280;11164;48.818;2.322;2023-04-22T08:10:15;99461.50;;;13.77;42.09
22000;BME280;11164;48.818;2.322;2023-04-22T08:12:41;99472.28;;;13.89;41.85
22000;BME280;11164;48.818;2.322;2023-04-22T08:15:06;99480.16;;;13.91;41.64
22000;BME280;11164;48.818;2.322;2023-04-22T08:17:32;99482.56;;;13.87;41.94
22000;BME280;11164;48.818;2.322;2023-04-22T08:19:57;99478.81;;;14.10;41.56
22000;BME280;11164;48.818;2.322;2023-04-22T08:22:22;99483.25;;;14.16;41.52
22000;BME280;11164;48.818;2.322;2023-04-22T08:24:48;99489.91;;;14.09;41.83
22000;BME280;11164;48.818;2.322;2023-04-22T08:27:13;99487.41;;;14.02;42.17
22000;BME280;11164;48.818;2.322;2023-04-22T08:29:39;99488.38;;;13.96;42.21
22000;BME280;11164;48.818;2.322;2023-04-22T08:32:04;99496.66;;;13.89;42.92
22000;BME280;11164;48.818;2.322;2023-04-22T08:34:30;99489.19;;;13.96;42.39
22000;BME280;11164;48.818;2.322;2023-04-22T08:36:55;99489.59;;;14.05;42.58
22000;BME280;11164;48.818;2.322;2023-04-22T08:39:20;99487.28;;;14.14;42.37
22000;BME280;11164;48.818;2.322;2023-04-22T08:41:48;99493.94;;;14.23;42.32
22000;BME280;11164;48.818;2.322;2023-04-22T08:44:15;99495.94;;;14.33;41.94
22000;BME280;11164;48.818;2.322;2023-04-22T08:46:44;99504.56;;;14.30;42.76
22000;BME280;11164;48.818;2.322;2023-04-22T08:49:14;99496.88;;;14.21;43.13
22000;BME280;11164;48.818;2.322;2023-04-22T08:51:39;99498.00;;;14.25;42.41
22000;BME280;11164;48.818;2.322;2023-04-22T08:54:06;99495.94;;;14.33;42.45
22000;BME280;11164;48.818;2.322;2023-04-22T08:56:32;99501.00;;;14.46;42.46
22000;BME280;11164;48.818;2.322;2023-04-22T08:58:58;99493.63;;;14.63;42.30
22000;BME280;11164;48.818;2.322;2023-04-22T09:01:24;99514.19;;;14.59;42.90
22000;BME280;11164;48.818;2.322;2023-04-22T09:03:51;99510.06;;;14.35;43.27
22000;BME280;11164;48.818;2.322;2023-04-22T09:06:18;99506.78;;;14.33;43.77
22000;BME280;11164;48.818;2.322;2023-04-22T09:08:46;99497.34;;;14.57;43.35
22000;BME280;11164;48.818;2.322;2023-04-22T09:11:13;99512.81;;;14.57;43.57
22000;BME280;11164;48.818;2.322;2023-04-22T09:13:39;99505.78;;;14.39;43.95
22000;BME280;11164;48.818;2.322;2023-04-22T09:16:04;99508.81;;;14.42;43.97
22000;BME280;11164;48.818;2.322;2023-04-22T09:18:38;99515.06;;;14.43;45.86
22000;BME280;11164;48.818;2.322;2023-04-22T09:21:04;99509.53;;;14.77;43.14
22000;BME280;11164;48.818;2.322;2023-04-22T09:23:29;99511.16;;;14.78;43.73
22000;BME280;11164;48.818;2.322;2023-04-22T09:25:56;99507.06;;;14.75;43.76
22000;BME280;11164;48.818;2.322;2023-04-22T09:28:21;99509.75;;;14.92;43.84
22000;BME280;11164;48.818;2.322;2023-04-22T09:30:46;99514.28;;;14.87;44.15
22000;BME280;11164;48.818;2.322;2023-04-22T09:33:12;99517.59;;;14.94;44.12
22000;BME280;11164;48.818;2.322;2023-04-22T09:35:39;99534.66;;;15.11;43.77
22000;BME280;11164;48.818;2.322;2023-04-22T09:38:07;99533.91;;;14.94;44.54
22000;BME280;11164;48.818;2.322;2023-04-22T09:40:34;99536.13;;;14.80;45.19
22000;BME280;11164;48.818;2.322;2023-04-22T09:43:01;99550.47;;;14.92;45.08
22000;BME280;11164;48.818;2.322;2023-04-22T09:50:37;99558.00;;;14.90;45.27
22000;BME280;11164;48.818;2.322;2023-04-22T09:53:06;99564.06;;;14.75;45.94
22000;BME280;11164;48.818;2.322;2023-04-22T09:55:35;99570.44;;;14.86;45.84
22000;BME280;11164;48.818;2.322;2023-04-22T09:58:11;99584.09;;;14.74;49.29
22000;BME280;11164;48.818;2.322;2023-04-22T10:00:45;99571.56;;;14.68;49.79
22000;BME280;11164;48.818;2.322;2023-04-22T10:03:12;99582.72;;;14.89;45.84
22000;BME280;11164;48.818;2.322;2023-04-22T10:05:38;99586.50;;;15.10;45.31
22000;BME280;11164;48.818;2.322;2023-04-22T10:08:05;99586.56;;;15.15;45.31
22000;BME280;11164;48.818;2.322;2023-04-22T10:10:31;99589.53;;;14.74;45.97
22000;BME280;11164;48.818;2.322;2023-04-22T10:12:57;99587.06;;;14.90;45.66
22000;BME280;11164;48.818;2.322;2023-04-22T10:15:23;99589.53;;;15.13;45.29
22000;BME280;11164;48.818;2.322;2023-04-22T10:17:51;99590.94;;;14.77;46.54
22000;BME280;11164;48.818;2.322;2023-04-22T10:20:19;99601.53;;;14.78;46.40
22000;BME280;11164;48.818;2.322;2023-04-22T10:22:46;99593.44;;;14.61;46.92
22000;BME280;11164;48.818;2.322;2023-04-22T10:25:14;99594.88;;;14.86;46.44
22000;BME280;11164;48.818;2.322;2023-04-22T10:27:53;99604.28;;;14.61;50.28
22000;BME280;11164;48.818;2.322;2023-04-22T10:30:27;99591.56;;;14.45;50.10
22000;BME280;11164;48.818;2.322;2023-04-22T10:32:52;99615.28;;;14.89;46.42
22000;BME280;11164;48.818;2.322;2023-04-22T10:35:25;99612.91;;;14.58;50.27
22000;BME280;11164;48.818;2.322;2023-04-22T10:37:55;99612.19;;;14.46;47.45
22000;BME280;11164;48.818;2.322;2023-04-22T10:40:21;99606.75;;;14.63;46.81
22000;BME280;11164;48.818;2.322;2023-04-22T10:42:51;99618.75;;;14.84;48.42
22000;BME280;11164;48.818;2.322;2023-04-22T10:45:18;99622.19;;;14.62;46.88
22000;BME280;11164;48.818;2.322;2023-04-22T10:47:48;99625.19;;;14.44;47.14
22000;BME280;11164;48.818;2.322;2023-04-22T10:52:47;99633.75;;;14.19;48.95
22000;BME280;11164;48.818;2.322;2023-04-22T10:55:15;99645.72;;;14.06;48.33
22000;BME280;11164;48.818;2.322;2023-04-22T10:57:45;99640.31;;;14.23;49.35
22000;BME280;11164;48.818;2.322;2023-04-22T11:00:26;99640.66;;;14.27;49.48
22000;BME280;11164;48.818;2.322;2023-04-22T11:05:31;99651.44;;;15.38;45.45
22000;BME280;11164;48.818;2.322;2023-04-22T11:08:09;99671.84;;;15.19;48.17
22000;BME280;11164;48.818;2.322;2023-04-22T11:10:41;99666.59;;;14.39;49.04
22000;BME280;11164;48.818;2.322;2023-04-22T11:13:27;99673.25;;;14.66;48.67
22000;BME280;11164;48.818;2.322;2023-04-22T11:15:54;99672.44;;;14.48;47.24
22000;BME280;11164;48.818;2.322;2023-04-22T11:18:24;99674.66;;;14.34;49.09
22000;BME280;11164;48.818;2.322;2023-04-22T11:20:50;99686.97;;;14.08;47.72
22000;BME280;11164;48.818;2.322;2023-04-22T11:23:27;99677.06;;;14.48;49.44
22000;BME280;11164;48.818;2.322;2023-04-22T11:26:05;99687.47;;;14.90;47.92
22000;BME280;11164;48.818;2.322;2023-04-22T11:28:31;99691.25;;;14.72;45.91
22000;BME280;11164;48.818;2.322;2023-04-22T11:31:05;99693.72;;;14.73;47.37
22000;BME280;11164;48.818;2.322;2023-04-22T11:33:33;99704.50;;;14.68;46.57
22000;BME280;11164;48.818;2.322;2023-04-22T11:35:59;99705.81;;;14.49;46.59
22000;BME280;11164;48.818;2.322;2023-04-22T11:38:25;99708.53;;;14.66;46.17
22000;BME280;11164;48.818;2.322;2023-04-22T11:40:50;99716.75;;;14.71;46.01
22000;BME280;11164;48.818;2.322;2023-04-22T11:43:18;99716.81;;;14.76;46.19
22000;BME280;11164;48.818;2.322;2023-04-22T11:45:43;99717.72;;;14.81;45.92
22000;BME280;11164;48.818;2.322;2023-04-22T11:48:10;99720.03;;;15.07;45.50
22000;BME280;11164;48.818;2.322;2023-04-22T11:50:38;99730.16;;;15.33;45.14
22000;BME280;11164;48.818;2.322;2023-04-22T11:55:40;99728.09;;;14.85;46.47
22000;BME280;11164;48.818;2.322;2023-04-22T11:58:07;99728.91;;;14.85;46.42
22000;BME280;11164;48.818;2.322;2023-04-22T12:00:34;99739.53;;;15.43;45.36
22000;BME280;11164;48.818;2.322;2023-04-22T12:05:43;99732.53;;;15.96;45.68
22000;BME280;11164;48.818;2.322;2023-04-22T12:08:11;99737.78;;;16.03;44.51
22000;BME280;11164;48.818;2.322;2023-04-22T12:10:39;99742.50;;;15.85;44.80
22000;BME280;11164;48.818;2.322;2023-04-22T12:13:05;99745.16;;;15.80;45.12
22000;BME280;11164;48.818;2.322;2023-04-22T12:15:42;99743.25;;;15.81;47.37
22000;BME280;11164;48.818;2.322;2023-04-22T12:18:07;99757.53;;;15.71;45.39
22000;BME280;11164;48.818;2.322;2023-04-22T12:20:36;99772.81;;;15.16;47.04
22000;BME280;11164;48.818;2.322;2023-04-22T12:23:03;99770.16;;;15.38;45.88
22000;BME280;11164;48.818;2.322;2023-04-22T12:25:28;99764.75;;;15.60;45.21
22000;BME280;11164;48.818;2.322;2023-04-22T12:27:54;99762.19;;;15.53;45.40
22000;BME280;11164;48.818;2.322;2023-04-22T12:30:20;99756.31;;;15.40;45.84
22000;BME280;11164;48.818;2.322;2023-04-22T12:32:47;99776.59;;;15.54;45.49
22000;BME280;11164;48.818;2.322;2023-04-22T12:35:13;99767.34;;;15.33;46.31
22000;BME280;11164;48.818;2.322;2023-04-22T12:37:38;99768.13;;;15.50;46.01
22000;BME280;11164;48.818;2.322;2023-04-22T12:40:03;99763.69;;;16.38;44.63
22000;BME280;11164;48.818;2.322;2023-04-22T12:42:30;99753.75;;;16.81;44.02
22000;BME280;11164;48.818;2.322;2023-04-22T12:44:56;99767.63;;;17.70;42.63
22000;BME280;11164;48.818;2.322;2023-04-22T12:47:21;99764.16;;;17.85;42.94
22000;BME280;11164;48.818;2.322;2023-04-22T12:49:46;99768.44;;;18.59;41.57
22000;BME280;11164;48.818;2.322;2023-04-22T12:52:13;99774.91;;;18.17;41.99
22000;BME280;11164;48.818;2.322;2023-04-22T12:54:38;99762.31;;;19.44;39.68
22000;BME280;11164;48.818;2.322;2023-04-22T12:57:04;99783.94;;;20.11;38.45
22000;BME280;11164;48.818;2.322;2023-04-22T12:59:29;99773.88;;;18.59;41.08
22000;BME280;11164;48.818;2.322;2023-04-22T13:01:55;99781.66;;;18.04;42.13
22000;BME280;11164;48.818;2.322;2023-04-22T13:04:20;99777.59;;;18.12;42.03
22000;BME280;11164;48.818;2.322;2023-04-22T13:06:46;99781.50;;;18.36;41.78
22000;BME280;11164;48.818;2.322;2023-04-22T13:09:11;99783.16;;;18.73;41.37
22000;BME280;11164;48.818;2.322;2023-04-22T13:11:37;99773.63;;;18.91;41.00